34ème Rallye Terre des Cardabelles
Championnat de France des Rallyes sur Terre
1 2 CUOQ Jean-Marie/GRANDEMANGE Marielle Citroën C4 WRC FA 8W 7:44,9 92km/h 1
2 6 BAUD Lionel/BAUD Lucie Citroën DS3 WRC A 8W 7:57,6 +00:12,7 +00:12,7 1
3 5 MAURIN Julien/URAL Olivier Citroën DS3 WRC A 8W 7:59,4 +00:14,5 +00:01,8 1
4 4 DURBEC Thibault/RENUCCI Jacques-Julien Citroën DS3 WRC A 8W 8:03,8 +00:18,9 +00:04,4 1
5 1 BERFA Jordan/AUGUSTIN Damien HUYNDAI i20 R5 R 5 8:05,6 +00:20,7 +00:01,8 1
6 3 FERAUD Cyrille/DUCHEMIN Aymeric Citroën C4 WRC FA 8W 8:06,8 +00:21,9 +00:01,2 1
7 8 MORDACQ Arnaud/ROUX Thomas Mitsubishi Lancer Evo9 FN 4 8:12,4 +00:27,5 +00:05,6 1
8 9 PETIT Jean-Eric/MAURIN Mathieu Ford Fiesta R5 R 5 8:17,5 +00:32,6 +00:05,1 1
9 31 LLARENA Efren/FERNANDEZ Sara Peugeot 208 VTI R 2 8:26,8 +00:41,9 +00:09,3 3
10 33 PINHEIRO Karl-Alexandre/LE FLOCH Franck Peugeot 208 VTI R 2 8:31,1 +00:46,2 +00:04,3 3
11 30 PELLIER Laurent/NEYRET-GIGOT Benoît Peugeot 208 VTI R 2 8:32,0 +00:47,1 +00:00,9 3
12 25 MARTI Christian/NOLORGUES Rémi Mitsubishi Lancer Evo9 FN 4 8:32,4 +00:47,5 +00:00,4 1
13 12 PELUTTIERO Thibaud/REICHENECKER Josh Mitsubishi Lancer EvoX R 4 8:32,8 +00:47,9 +00:00,4 1
14 85 CONDAMINES Florian/CAVAILLES Aurélien Subaru Impreza N 4 8:37,1 +00:52,2 +00:04,3
15 36 LARIO Taisko/RYYNANEN Tatu Peugeot 208 VTI R 2 8:37,2 +00:52,3 +00:00,1 3
16 40 BLANC Francois-Xavier/DE TURCKHEIM Gilles Peugeot 208 VTI R 2 8:38,4 +00:53,5 +00:01,2 1 2 3
17 78 MOREL Jean-Luc/GIDEL Philippe Subaru Impreza WRX FN 4 8:41,2 +00:56,3 +00:02,8
18 11 CECCHI Philippe/LETOURNEAU Lara Citroën DS3 R5 R 5 8:42,2 +00:57,3 +00:01,0
19 24 CHAYNES Gary/TRIBOUT Christian Mitsubishi Lancer Evo9 FN 4 8:43,3 +00:58,4 +00:01,1 1
20 32 SAHILA Aki/SUORSA Rami Peugeot 208 VTI R 2 8:44,5 +00:59,6 +00:01,2 3
21 35 BOSCH Florentin/TEMPIER Romain Peugeot 208 VTI R 2 8:44,6 +00:59,7 +00:00,1 3
22 90 VEYRARD Didier/TARDY Vincent Subaru Impreza STI FN 4 8:45,8 +01:00,9 +00:01,2
23 64 CROS Olivier/PRIVAT Christophe Subaru Impreza FA 8 8:46,1 +01:01,2 +00:00,3
24 7 SALGUES Gilles/MOUYSSET Jérôme Citroën Xsara WRC FA 8W 8:46,3 +01:01,4 +00:00,2
25 21 ASTIER Loïc/DECLERCK Loïc Citroën DS3 R3 R 3 8:47,3 +01:02,4 +00:01,0 1 2
26 27 MASCLAUX Arnaud/MOULIN Alexandre Renault Clio Ragnotti F2 14 8:49,4 +01:04,5 +00:02,1 1 2
27 34 MAISANO Brandon/PEBEYRE Pierre Peugeot 208 VTI R 2 8:50,3 +01:05,4 +00:00,9 3
28 91 DUNAND Alexandre/BROUZE Olivier Subaru Impreza Sti FN 4 8:51,3 +01:06,4 +00:01,0
29 17 DESANGLES Yanis/THERON Nicolas Subaru Impreza STI R 4 8:52,2 +01:07,3 +00:00,9
30 37 BAUDOIN Thomas/MILLET Kévin Peugeot 208 VTI R 2 8:52,3 +01:07,4 +00:00,1 3
31 26 JULIA David/AUBERTIN Ludovic Peugeot 206 Rc F2 14 8:52,6 +01:07,7 +00:00,3 1 2
32 41 FRANCESCHI Jean-Baptiste/COURBON Romain Ford Fiesta R2J R 2 8:56,7 +01:11,8 +00:04,1 4
33 115 FRANCESCHI Mathieu/MANZO Benoît Citroën C2 R2 R 2 9:00,0 +01:15,1 +00:03,3
34 43 FOURMAUX Adrien/PARENT Kévin Ford Fiesta R2J R 2 9:00,2 +01:15,3 +00:00,2 4
35 39 MOLLARD Alexandre/EYMIN Nicolas Peugeot 208 VTI R 2 9:01,3 +01:16,4 +00:01,1 3
36 87 CALAMEL Carol/CALAMEL Amélie Subaru Impreza FN 4 9:03,3 +01:18,4 +00:02,0
37 84 FONTAINE Fabien/BARD Jérôme Mitsubishi Lancer Evo5 FN 4 9:06,6 +01:21,7 +00:03,3
38 81 PUEL Gérard/PUEL Caroline Mitsubishi Lancer Evo8 FN 4 9:07,2 +01:22,3 +00:00,6
39 70 TARDY Guillaume/CHOUDEY Marc-Emilien Subaru Impreza FA 8 9:09,2 +01:24,3 +00:02,0
40 89 BLANC Jean-Francois/ROL Evelyne Mitsubishi Lancer Evo8 FN 4 9:10,0 +01:25,1 +00:00,8
41 28 VITAL Jean-Pierre/DECOUZON Pierre Citroën Saxo VTS F2 13 9:10,5 +01:25,6 +00:00,5 1 2
42 105 GILHODES Damien/GILHODES Jean-Louis Citroën Saxo T4 FA 6K 9:11,1 +01:26,2 +00:00,6
43 19 SALIN Daniel/SALIN Brigitte Subaru Impreza WRX R 4 9:11,5 +01:26,6 +00:00,4
44 73 PARISI-FOUQUE Alain/MARSILY Eric Subaru Impreza FA 8 9:13,3 +01:28,4 +00:01,8
45 50 PONTAL Julien/BARRAL Florian Ford Fiesta R2J R 2 9:17,5 +01:32,6 +00:04,2 4
46 77 CALMELS Pierre/BONALDI Xavier Citroën DS3 R3 R 3 9:19,1 +01:34,2 +00:01,6
47 49 CORNU Alexandre/FASSOLA Thibault Ford Fiesta R2J R 2 9:20,1 +01:35,2 +00:01,0 4
48 47 CHANTRIAUX Audric/GAREL Romain Ford Fiesta R2J R 2 9:20,3 +01:35,4 +00:00,2 4
49 66 MARON-GIRARD Alain/GRENIER Bernard Mitsubishi Lancer Evo9 FA 8 9:21,1 +01:36,2 +00:00,8
50 44 CARTIER Victor/CRAEN Fabien Ford Fiesta R2J R 2 9:21,2 +01:36,3 +00:00,1 4
51 48 GIUSTI Igor/DINI Gilbert Ford Fiesta R2J R 2 9:21,8 +01:36,9 +00:00,6 4
52 132 ARTZNER Mathieu/GIRARD Vincent Peugeot 206 XS F2 13 9:22,0 +01:37,1 +00:00,2
53 23 CHAPUS Serge/FAVREAU Mathieu Citroën DS3 R3 R 3 9:22,6 +01:37,7 +00:00,6 1 2
54 114 ARTIERES Nicolas/VINCENT Frédéric Peugeot 208 VTI R 2 9:22,8 +01:37,9 +00:00,2
55 110 MAUREL Alain/MAUREL Lucile Citroën Saxo T4 FA 6K 9:23,4 +01:38,5 +00:00,6
56 106 LUCADOU Dominique/LUCADOU Joris Citroën Saxo T4 FA 6K 9:23,9 +01:39,0 +00:00,5
57 56 EYDOUX Laurent/MOUTOT Olivier Peugeot 206 XS FA 6K 9:24,6 +01:39,7 +00:00,7
58 29 SABATIER Florent/SANTIAGO Thomas Peugeot 106 S16 FA 6 9:25,3 +01:40,4 +00:00,7 1 2
59 108 THEROND Nicolas/BAFFALIE François Citroën Saxo T4 FA 6K 9:25,6 +01:40,7 +00:00,3
60 137 GELAS Fabrice/BARRACHIN Florian Peugeot 106 S16 F2 13 9:26,1 +01:41,2 +00:00,5
61 51 MOUSTIN Doriann/DESNOYERS Alexia Ford Fiesta R2J R 2 9:26,4 +01:41,5 +00:00,3 4
62 118 GABEREL Nicolas/VILANOVA Teddy Peugeot 208 VTI R 2 9:26,4 +01:41,5
63 46 CURIOZ Benjamin/BEERENS Pierre Ford Fiesta R2J R 2 9:27,7 +01:42,8 +00:01,3 4
64 116 JOUINES Jean/CHABBERT Martin Opel Adam Rally R FR2 9:28,1 +01:43,2 +00:00,4
65 62 MAUREL Yves/MAUREL Maxime Peugeot 207 S2000 FA 7S 9:30,2 +01:45,3 +00:02,1
66 104 MARCOBAL Thierry/BOYER Jean-Francois Citroën Saxo T4 FA 6K 9:30,2 +01:45,3
67 82 SOUMAORO Moriféré/JACQUELIN Pierre Mitsubishi Lancer Evo10 N 4 9:32,0 +01:47,1 +00:01,8
68 63 LOPEZ Etienne/MERCIER Marjorie Subaru Impreza WRX FA 8 9:32,7 +01:47,8 +00:00,7
69 86 ECK Jean-Luc/ECK Aurélien Subaru Impreza WRX FN 4 9:33,1 +01:48,2 +00:00,4
70 45 GANDELLI David/BIAGETTI Loan Ford Fiesta R2J R 2 9:33,5 +01:48,6 +00:00,4 4
71 20 MORAES Henri/MORAES Anthony Subaru Impreza WRX FA 8 9:35,2 +01:50,3 +00:01,7 1
72 109 MAS Paul/BERTRAND Nathalie Citroën Saxo T4 FA 6K 9:35,8 +01:50,9 +00:00,6
73 95 BONALDI Pierre-Benoit/CANTANHEDE Bruno Peugeot 306 S16 F2 14 9:35,9 +01:51,0 +00:00,1
74 67 MONNIER Alain/JAMAGOTCHIAN Cyril Subaru Impreza Sti FA 8 9:37,4 +01:52,5 +00:01,5
75 100 MOULIN François/BONNET Dorine Renault Clio RS F2 14 9:40,0 +01:55,1 +00:02,6
76 98 ROUCOULY Mathieu/MONNERON Lionel Peugeot 309 GTI F2 14 9:43,6 +01:58,7 +00:03,6
77 61 BELLIARDO Daniel/BRAQUET Jean-Baptiste Peugeot 306 S16 FN 3 9:44,4 +01:59,5 +00:00,8 1 2
78 55 GILLET Nicolas/CORIA Alexandre Ford Fiesta R2J R 2 9:44,6 +01:59,7 +00:00,2 4
79 124 VIALA Jérôme/ROUBY Nathan Peugeot 206 Rc FA 7 9:45,6 +02:00,7 +00:01,0
80 65 JARLAN Maxime/CAMALY Thierry Subaru Impreza FA 8 9:46,8 +02:01,9 +00:01,2
81 68 PASQUALINI Pierre/OLLARI Gérard B.M.W. 325i FA 8 9:47,6 +02:02,7 +00:00,8
82 125 PANSARD Olivier/GIOVANELLI Christophe Peugeot 205 GTI FA 7 9:47,7 +02:02,8 +00:00,1
83 142 CHENEVAY Rémy/ESCARTEFIGUE Jules Citroën Saxo VTS FA 6 9:49,7 +02:04,8 +00:02,0
84 111 ESPALIEU David/NUNES Robert Citroën Saxo T4 FA 6K 9:50,6 +02:05,7 +00:00,9
85 120 BOUZID Lilian/VERGNES Antony Peugeot 306 S16 FA 7 9:51,3 +02:06,4 +00:00,7
86 126 ROCHER Arnaud/PAULHAN Sabine Renault Clio RS FA 7 9:52,3 +02:07,4 +00:01,0
87 107 CHASSANIOL Jacky/CUBIZOLLES Arnaud Citroën Saxo T4 FA 6K 9:53,9 +02:09,0 +00:01,6
88 53 VIAROUGE David/BENZAL Aurélien Ford Fiesta R2J R 2 9:54,4 +02:09,5 +00:00,5 4
89 135 GERMAIN Alex/POIROT Edgard Peugeot 205 GTI F2 13 9:58,1 +02:13,2 +00:03,7
90 127 TROMEL Frank/TROMEL Corinne Peugeot 206 Rc FA 7 10:01,5 +02:16,6 +00:03,4
91 129 BRAJON Ludovic/SALANSON Thierry Renault Clio RS FN 3 10:02,4 +02:17,5 +00:00,9
92 102 VIDAL Marc/MONTARON Loïc Peugeot 309 GTI 16S F2 14 10:03,3 +02:18,4 +00:00,9
93 140 RALITE Christophe/ABBAL Marie Peugeot 106 S16 FA 6 10:05,7 +02:20,8 +00:02,4
94 131 PIQUERAS Jérôme/BLANC Morgan Peugeot 205 GTI F2 13 10:06,8 +02:21,9 +00:01,1
95 128 LESCURE Philippe/ESCAICH Bertrand Peugeot 306 S16 FA 7 10:11,6 +02:26,7 +00:04,8
96 59 CLEMENT Frédéric/COSTES François Peugeot 206 Rc F2 14 10:12,4 +02:27,5 +00:00,8 1 2
97 136 MAJOREL Clément/GINESTE Elsa Peugeot 106 S16 F2 13 10:13,6 +02:28,7 +00:01,2
98 112 BIAU Jean-Luc/BROLIQUET Eric Peugeot 206 XS FA 6K 10:14,7 +02:29,8 +00:01,1
99 121 GAGNEUR Hervé/DESNOYERS Jean-Philippe Peugeot 306 S16 FA 7 10:17,1 +02:32,2 +00:02,4
100 123 FRELAUT Yohann/CASSAGNADE Pascal Peugeot 206 Rc FA 7 10:19,5 +02:34,6 +00:02,4
101 93 CHARRIE Yoann/JAMMES Yannick Peugeot 206 Rc F2 14 10:21,7 +02:36,8 +00:02,2
102 117 LEYGUE Laurent/GEORGE Nicolas Peugeot 208 VTI R 2 10:23,9 +02:39,0 +00:02,2
103 147 AGNIEL Damien/PAYSAN Jean-Paul Peugeot 106 XSI FN 2 10:30,4 +02:45,5 +00:06,5
104 94 MARTIN Gary/FACCIO Alexandra Peugeot 106 S16 F2 13 10:44,6 +02:59,7 +00:14,2
105 52 VIANO Allison/CHOL Cecilia Ford Fiesta R2J R 2 10:45,7 +03:00,8 +00:01,1 4
106 96 BARAT DA COSTA RODRIGO Tony/LOPEZ Yannick B.M.W. 320i F2 14 10:47,2 +03:02,3 +00:01,5
107 144 PORTAL Kévin/YONNET Fabien Ford Fiesta R1 R 1 11:13,1 +03:28,2 +00:25,9
108 149 BES Yves/BURGUIERE Alexis Peugeot 106 XR F2 11 11:13,3 +03:28,4 +00:00,2
109 146 FRANCOIS Léa/FRANCOIS Solene Peugeot 106 S16 FN 2 11:16,4 +03:31,5 +00:03,1
110 122 GUILLON Jean-Luc/NEGRE Jean-Pierre Peugeot 206 GT FA 7 11:16,8 +03:31,9 +00:00,4
111 145 LATIEZE Yvan/GOUY Cindy Peugeot 106 S16 FN 2 11:19,5 +03:34,6 +00:02,7
112 143 POUGET Dorian/BERNARD Kévin Peugeot 106 XSI FA 5K 11:22,3 +03:37,4 +00:02,8
113 72 GIORDANENGO Jimmy/DELAMOTTE Alexis Mitsubishi Lancer Evo9 FA 8 12:28,6 +04:43,7 +01:06,3
114 138 PICARD Erick/LEBRETTON Amandine Dacia Logan F2 13 13:20,4 +05:35,5 +00:51,8
115 148 LEMAIRE Yoann/POMAREDE Marc Citroën Saxo VTS F2 12 13:36,2 +05:51,3 +00:15,8
Clt Equipage Voiture Gr/Cl Temps Ecart 1er Ecart préc. Catégories
Commentaires: © PatricK Soft  
(Temps forfaitaires=couleur bleue)
Classés:115

Epreuve: Groupe: Catégorie:

 
Retour
Classement ES3-Sainte Eulalie 1 (12.000 km)